ΕΜΥ, Εθνική Μετεωρολογική Υπηρεσία - Δελτία Καιρού, Προγνώσεις

ΑΕΡΟΝΑΥΤΙΛΙΑ

GREEK AIRPORTS CODES

TAF LGKL 041400Z 0415/0424 16012KT 9999 SCT020 SCT080 PROB30 TEMPO 0415/0416 5000 RA SCT020 BKN080 BECMG 0419/0421 34010KT=

EUROPEAN AIRPORTS CODES

EDDB 041550Z 13008KT 9999 OVC004 01/01 Q0999 TEMPO OVC005=